Terminal Aerodrome Forecast
Issued by NWS Springfield, MO

Home | Current Version | Previous Version | Text Only | Print | Product List | Glossary On
Versions: 1 2 3 4 5 6 7 8 9 10 11 12 13 14 15 16
991
FTUS43 KSGF 262334
TAFSGF
TAF
KSGF 262334Z 2700/2724 06006KT 5SM -SHRA VCTS SCT030 OVC060CB
     FM270130 15005KT P6SM VCSH SCT050 BKN100
     FM270600 15005KT P6SM BKN120
     FM271700 21005KT P6SM VCTS SCT040CB BKN080=

USA.gov is the U.S. government's official web portal to all federal, state and local government web resources and services.